EST,Max TemperatureF,Mean TemperatureF,Min TemperatureF,Max Dew PointF,MeanDew PointF,Min DewpointF,Max Humidity, Mean Humidity, Min Humidity, Max Sea Level PressureIn, Mean Sea Level PressureIn, Min Sea Level PressureIn, Max VisibilityMiles, Mean VisibilityMiles, Min VisibilityMiles, Max Wind SpeedMPH, Mean Wind SpeedMPH, Max Gust SpeedMPH,PrecipitationIn, CloudCover, Events, WindDirDegrees
2012-11-1,33,30,28,32,29,23,100,92,65,29.77,29.70,29.65,10,10,10,28,23,36,0.00,7,,282
2012-11-2,39,34,30,28,23,19,87,64,45,29.92,29.81,29.74,10,10,10,26,18,39,0.00,4,Snow,286
2012-11-3,39,32,26,30,27,25,93,82,61,30.06,30.00,29.92,10,10,5,22,14,30,0.06,6,,297
2012-11-4,44,37,30,37,32,21,100,84,45,30.06,30.01,29.97,10,8,0,17,6,20,0.00,5,Fog,279
2012-11-5,42,33,24,25,23,19,93,72,42,30.09,30.03,29.99,10,10,10,18,10,24,0.00,0,,318
2012-11-6,33,28,23,27,25,21,100,88,75,30.07,30.00,29.90,10,10,7,9,5,,0.00,0,,112
2012-11-7,37,32,26,28,25,19,93,77,52,29.93,29.87,29.83,10,10,10,13,6,,0.00,6,,319
2012-11-8,42,34,26,25,18,9,86,58,26,30.12,30.02,29.92,10,10,10,21,14,30,0.00,1,,302
2012-11-9,51,40,28,30,27,19,93,63,34,30.28,30.20,30.10,10,10,10,23,14,26,0.00,0,,279
2012-11-10,60,53,46,34,24,10,44,34,18,30.42,30.36,30.27,10,10,10,15,11,17,0.00,0,,247
2012-11-11,60,55,50,45,30,9,76,42,14,30.51,30.45,30.41,10,10,10,16,8,23,0.00,0,,178
2012-11-12,53,45,37,54,50,37,100,98,76,30.44,30.32,30.22,10,1,0,25,12,31,0.75,8,Fog-Rain-Snow,181
2012-11-13,37,30,24,37,25,21,100,81,52,30.39,30.32,30.23,10,8,0,24,15,31,0.10,2,Fog-Rain-Snow,305
2012-11-14,33,27,21,25,23,19,100,85,69,30.43,30.37,30.32,10,10,7,14,6,20,0.00,0,,79
2012-11-15,37,30,23,27,24,21,100,82,65,30.32,30.27,30.24,10,10,7,8,5,,0.00,0,,85
2012-11-16,46,38,30,27,24,21,80,60,43,30.41,30.31,30.24,10,10,10,12,7,,0.00,0,,344
2012-11-17,46,39,32,23,21,18,69,50,37,30.51,30.49,30.41,10,10,10,14,10,20,0.00,0,,93
2012-11-18,42,38,33,34,29,21,100,76,53,30.51,30.48,30.44,10,10,7,14,11,20,0.00,3,,92
2012-11-19,44,38,33,36,34,30,100,84,61,30.43,30.33,30.20,10,9,0,12,6,,0.00,4,Fog,85
2012-11-20,48,42,35,36,32,27,87,65,53,30.20,30.14,30.09,10,10,10,12,7,,0.00,1,,290
2012-11-21,51,44,37,28,21,12,65,41,27,30.24,30.18,30.13,10,10,2,10,6,,0.00,0,,354
2012-11-22,51,44,37,27,23,19,61,45,30,30.27,30.23,30.17,10,10,10,10,5,,0.00,0,,15
2012-11-23,51,40,28,41,32,21,100,66,43,30.16,29.98,29.85,10,10,2,26,18,41,0.03,4,Rain,271
2012-11-24,28,22,17,21,16,12,93,80,69,29.97,29.91,29.84,10,10,7,30,19,39,0.00,8,Snow,292
2012-11-25,39,28,17,16,14,12,93,63,33,29.98,29.94,29.89,10,10,10,25,16,31,0.00,2,,273
2012-11-26,48,40,33,34,22,14,76,51,41,30.18,30.10,29.98,10,10,10,25,17,31,0.00,3,Rain,264
2012-11-27,41,34,28,36,33,28,100,93,70,30.18,30.14,30.10,10,7,0,12,8,16,0.00,8,Fog-Rain-Snow,281
2012-11-28,33,28,24,28,21,18,100,76,52,30.31,30.23,30.16,10,10,1,23,13,28,0.00,3,,285
2012-11-29,41,32,23,21,18,10,93,61,33,30.37,30.32,30.29,10,10,10,18,12,,0.00,0,,261
2012-11-30,48,42,37,30,24,16,61,50,41,30.35,30.30,30.27,10,10,10,18,13,23,0.00,1,,250